createdAt,value
2018-08-28T00:02:20.289Z,63.34
2018-08-28T00:04:47.895Z,62.90
2018-08-28T00:07:15.510Z,62.88
2018-08-28T00:09:43.427Z,63.24
2018-08-28T00:12:12.678Z,63.46
2018-08-28T00:14:40.286Z,63.21
2018-08-28T00:17:08.997Z,62.89
2018-08-28T00:19:37.039Z,62.46
2018-08-28T00:22:04.666Z,62.58
2018-08-28T00:24:32.287Z,62.87
2018-08-28T00:26:59.895Z,62.28
2018-08-28T00:29:27.528Z,62.58
2018-08-28T00:31:57.529Z,62.37
2018-08-28T00:34:25.124Z,62.81
2018-08-28T00:36:53.074Z,62.80
2018-08-28T00:39:20.719Z,62.34
2018-08-28T00:41:49.338Z,62.72
2018-08-28T00:44:17.622Z,62.63
2018-08-28T00:46:45.551Z,62.94
2018-08-28T00:49:13.701Z,62.81
2018-08-28T00:51:41.390Z,62.20
2018-08-28T00:54:10.094Z,62.72
2018-08-28T00:56:39.105Z,62.96
2018-08-28T00:59:06.760Z,62.12
2018-08-28T01:01:34.398Z,62.30
2018-08-28T01:04:02.009Z,62.47
2018-08-28T01:06:29.887Z,62.74
2018-08-28T01:08:57.509Z,61.83
2018-08-28T01:11:25.152Z,62.58
2018-08-28T01:13:53.038Z,62.64
2018-08-28T01:16:20.650Z,62.13
2018-08-28T01:18:48.270Z,62.62
2018-08-28T01:21:15.900Z,62.19
2018-08-28T01:23:43.765Z,61.81
2018-08-28T01:26:11.395Z,62.04
2018-08-28T01:33:57.647Z,61.70
2018-08-28T01:44:20.648Z,62.71
2018-08-28T01:46:48.358Z,62.17
2018-08-28T01:49:16.536Z,62.48
2018-08-28T01:51:44.499Z,63.13
2018-08-28T01:54:12.146Z,62.97
2018-08-28T01:56:39.914Z,63.03
2018-08-28T01:59:07.516Z,62.78
2018-08-28T02:01:35.517Z,62.77
2018-08-28T02:04:03.299Z,62.57
2018-08-28T02:06:30.918Z,62.69
2018-08-28T02:08:58.515Z,62.98
2018-08-28T02:11:26.607Z,62.91
2018-08-28T02:13:54.230Z,63.23
2018-08-28T02:16:21.816Z,63.18
2018-08-28T02:18:49.419Z,63.22
2018-08-28T02:21:17.419Z,63.00
2018-08-28T02:23:45.036Z,62.34
2018-08-28T02:26:12.645Z,62.82
2018-08-28T02:28:40.337Z,62.95
2018-08-28T02:31:08.243Z,62.73
2018-08-28T02:33:35.967Z,62.41
2018-08-28T02:36:03.563Z,62.57
2018-08-28T02:38:31.472Z,62.07
2018-08-28T02:40:59.099Z,62.66
2018-08-28T02:43:26.717Z,62.83
2018-08-28T02:45:54.314Z,62.03
2018-08-28T02:48:22.258Z,63.14
2018-08-28T02:50:50.107Z,62.93
2018-08-28T02:53:17.734Z,62.50
2018-08-28T02:55:45.343Z,62.50
2018-08-28T02:58:13.227Z,63.15
2018-08-28T03:00:40.888Z,62.87
2018-08-28T03:03:08.550Z,62.74
2018-08-28T03:05:36.415Z,62.94
2018-08-28T03:08:04.026Z,63.72
2018-08-28T03:10:31.755Z,63.02
2018-08-28T03:12:59.343Z,63.22
2018-08-28T03:15:27.459Z,63.21
2018-08-28T03:17:55.097Z,63.61
2018-08-28T03:20:22.729Z,63.24
2018-08-28T03:22:50.656Z,63.76
2018-08-28T03:25:18.258Z,63.76
2018-08-28T03:27:45.884Z,64.25
2018-08-28T03:30:13.503Z,63.57
2018-08-28T03:32:41.436Z,64.17
2018-08-28T03:35:09.061Z,64.03
2018-08-28T03:37:36.651Z,64.44
2018-08-28T03:40:04.290Z,64.34
2018-08-28T03:42:33.284Z,63.92
2018-08-28T03:45:00.888Z,64.24
2018-08-28T03:47:28.491Z,63.87
2018-08-28T03:49:56.356Z,64.25
2018-08-28T03:52:23.958Z,64.21
2018-08-28T03:54:51.674Z,64.65
2018-08-28T03:57:20.540Z,64.61
2018-08-28T03:59:48.927Z,64.05
2018-08-28T04:12:50.427Z,64.79
2018-08-28T04:15:18.026Z,64.54
2018-08-28T04:17:49.483Z,64.49
2018-08-28T04:20:18.159Z,64.30
2018-08-28T04:22:45.850Z,64.30
2018-08-28T04:25:13.470Z,65.05
2018-08-28T04:27:41.407Z,64.98
2018-08-28T04:30:09.299Z,64.47
2018-08-28T04:32:38.120Z,64.89
2018-08-28T04:35:06.020Z,65.55
2018-08-28T04:37:33.643Z,65.67
2018-08-28T04:40:01.649Z,64.99
2018-08-28T04:42:29.415Z,65.24
2018-08-28T04:44:57.030Z,65.94
2018-08-28T04:47:25.209Z,65.32
2018-08-28T04:49:54.485Z,65.77
2018-08-28T04:52:22.175Z,65.56
2018-08-28T04:54:50.087Z,66.01
2018-08-28T04:57:17.697Z,65.71
2018-08-28T04:59:45.307Z,66.38
2018-08-28T05:02:14.095Z,66.14
2018-08-28T05:04:41.731Z,66.02
2018-08-28T05:07:09.359Z,65.59
2018-08-28T05:09:37.257Z,65.56
2018-08-28T05:12:04.937Z,66.03
2018-08-28T05:14:32.590Z,66.04
2018-08-28T05:17:00.703Z,65.57
2018-08-28T05:19:29.354Z,66.26
2018-08-28T05:21:56.855Z,65.69
2018-08-28T05:24:24.762Z,65.72
2018-08-28T05:26:52.412Z,65.59
2018-08-28T05:29:20.199Z,65.38
2018-08-28T05:31:48.131Z,65.50
2018-08-28T05:34:15.755Z,65.56
2018-08-28T05:36:43.382Z,65.91
2018-08-28T05:39:11.266Z,65.22
2018-08-28T05:41:38.878Z,65.92
2018-08-28T05:44:06.491Z,65.36
2018-08-28T05:46:34.588Z,65.18
2018-08-28T05:49:02.197Z,64.94
2018-08-28T05:51:29.819Z,65.64
2018-08-28T05:53:57.722Z,65.50
2018-08-28T05:56:25.349Z,64.88
2018-08-28T05:58:52.943Z,64.43
2018-08-28T06:01:23.833Z,64.80
2018-08-28T06:03:51.445Z,64.90
2018-08-28T06:06:19.067Z,64.42
2018-08-28T06:08:47.022Z,63.73
2018-08-28T06:11:14.605Z,63.78
2018-08-28T06:13:43.314Z,63.81
2018-08-28T06:16:11.190Z,64.70
2018-08-28T06:18:38.841Z,64.47
2018-08-28T06:21:06.470Z,63.93
2018-08-28T06:23:34.346Z,64.13
2018-08-28T06:26:01.950Z,63.88
2018-08-28T06:28:29.548Z,63.90
2018-08-28T06:30:57.506Z,64.28
2018-08-28T06:33:25.614Z,63.87
2018-08-28T06:35:53.227Z,63.17
2018-08-28T06:38:21.116Z,63.09
2018-08-28T06:40:49.577Z,62.96
2018-08-28T06:43:17.982Z,63.52
2018-08-28T06:45:46.708Z,62.82
2018-08-28T06:48:14.543Z,62.92
2018-08-28T06:50:42.176Z,63.00
2018-08-28T06:53:10.160Z,62.94
2018-08-28T06:55:37.792Z,63.15
2018-08-28T06:58:05.379Z,63.36
2018-08-28T07:00:33.277Z,62.83
2018-08-28T07:03:00.900Z,63.40
2018-08-28T07:05:28.683Z,63.24
2018-08-28T07:07:56.582Z,63.54
2018-08-28T07:10:24.256Z,62.92
2018-08-28T07:12:52.439Z,63.45
2018-08-28T07:15:20.432Z,62.18
2018-08-28T07:17:48.228Z,62.43
2018-08-28T07:20:15.919Z,62.41
2018-08-28T07:22:43.827Z,61.77
2018-08-28T07:25:11.425Z,61.54
2018-08-28T07:27:40.083Z,61.83
2018-08-28T07:30:07.972Z,61.42
2018-08-28T07:32:35.656Z,61.42
2018-08-28T07:35:03.272Z,61.03
2018-08-28T07:37:32.774Z,61.46
2018-08-28T07:40:04.481Z,60.77
2018-08-28T07:42:34.025Z,61.18
2018-08-28T07:45:01.945Z,60.68
2018-08-28T07:47:29.611Z,60.47
2018-08-28T07:50:01.098Z,60.81
2018-08-28T07:52:29.033Z,60.37
2018-08-28T07:54:57.449Z,60.61
2018-08-28T07:57:25.059Z,59.84
2018-08-28T07:59:53.855Z,60.34
2018-08-28T08:02:21.491Z,59.37
2018-08-28T08:04:50.190Z,59.32
2018-08-28T08:07:18.507Z,59.88
2018-08-28T08:09:47.160Z,59.76
2018-08-28T08:12:15.388Z,59.01
2018-08-28T08:14:44.570Z,58.58
2018-08-28T08:17:12.885Z,58.62
2018-08-28T08:19:41.064Z,58.28
2018-08-28T08:22:09.010Z,58.22
2018-08-28T08:24:36.640Z,57.97
2018-08-28T08:27:04.250Z,58.06
2018-08-28T08:29:34.255Z,58.20
2018-08-28T08:32:02.588Z,57.25
2018-08-28T08:34:31.089Z,57.72
2018-08-28T08:36:59.930Z,57.22
2018-08-28T08:39:28.107Z,56.62
2018-08-28T08:41:55.869Z,56.31
2018-08-28T08:44:23.547Z,55.94
2018-08-28T08:46:51.155Z,55.78
2018-08-28T08:49:21.008Z,55.15
2018-08-28T08:51:48.673Z,55.49
2018-08-28T08:54:17.268Z,54.94
2018-08-28T08:56:45.166Z,55.23
2018-08-28T08:59:13.434Z,55.16
2018-08-28T09:01:41.070Z,54.11
2018-08-28T09:04:09.276Z,53.93
2018-08-28T09:06:36.923Z,54.38
2018-08-28T09:09:05.709Z,53.50
2018-08-28T09:11:33.621Z,53.62
2018-08-28T09:14:02.260Z,53.47
2018-08-28T09:16:30.727Z,53.46
2018-08-28T09:19:01.327Z,53.32
2018-08-28T09:21:30.651Z,53.02
2018-08-28T09:23:58.313Z,52.55
2018-08-28T09:26:27.256Z,52.63
2018-08-28T09:28:56.318Z,52.04
2018-08-28T09:31:24.871Z,52.59
2018-08-28T09:33:53.751Z,52.06
2018-08-28T09:36:21.644Z,52.48
2018-08-28T09:38:49.395Z,52.12
2018-08-28T09:41:17.336Z,52.68
2018-08-28T09:43:47.821Z,52.14
2018-08-28T09:46:15.446Z,52.06
2018-08-28T09:48:45.594Z,52.29
2018-08-28T09:51:13.620Z,52.12
2018-08-28T09:53:41.320Z,52.09
2018-08-28T09:56:11.991Z,52.08
2018-08-28T09:58:40.485Z,52.10
2018-08-28T10:01:13.231Z,52.14
2018-08-28T10:03:41.292Z,52.75
2018-08-28T10:06:10.411Z,52.78
2018-08-28T10:08:38.403Z,52.24
2018-08-28T10:11:10.435Z,52.22
2018-08-28T10:13:38.095Z,51.44
2018-08-28T10:16:06.671Z,51.08
2018-08-28T10:18:34.740Z,48.59
2018-08-28T10:21:02.569Z,47.53
2018-08-28T10:23:31.039Z,48.11
2018-08-28T10:26:00.446Z,46.63
2018-08-28T10:28:28.117Z,47.03
2018-08-28T10:30:56.567Z,45.48
2018-08-28T10:33:25.379Z,46.06
2018-08-28T10:35:56.191Z,47.27
2018-08-28T10:38:24.812Z,47.58
2018-08-28T10:40:52.740Z,47.79
2018-08-28T10:43:20.521Z,47.07
2018-08-28T10:45:48.937Z,46.35
2018-08-28T10:48:23.465Z,45.75
2018-08-28T10:50:51.438Z,44.63
2018-08-28T10:53:19.951Z,44.79
2018-08-28T10:55:49.361Z,45.04
2018-08-28T10:58:17.819Z,43.89
2018-08-28T11:00:45.499Z,43.79
2018-08-28T11:03:14.328Z,44.58
2018-08-28T11:05:41.999Z,45.69
2018-08-28T11:08:10.340Z,46.27
2018-08-28T11:10:40.106Z,46.32
2018-08-28T11:13:07.738Z,45.70
2018-08-28T11:15:36.310Z,45.00
2018-08-28T11:18:04.972Z,44.29
2018-08-28T11:20:33.214Z,44.89
2018-08-28T11:23:00.901Z,44.66
2018-08-28T11:25:28.947Z,44.84
2018-08-28T11:27:57.136Z,45.50
2018-08-28T11:30:26.116Z,46.21
2018-08-28T11:32:57.157Z,46.13
2018-08-28T11:35:25.725Z,44.59
2018-08-28T11:37:54.570Z,43.48
2018-08-28T11:40:22.525Z,41.99
2018-08-28T11:42:50.275Z,39.69
2018-08-28T11:45:20.551Z,38.68
2018-08-28T11:47:48.524Z,37.42
2018-08-28T11:50:16.305Z,36.01
2018-08-28T11:52:44.053Z,37.39
2018-08-28T11:55:17.054Z,36.47
2018-08-28T11:57:46.373Z,36.03
2018-08-28T12:00:16.593Z,36.21
2018-08-28T12:02:44.609Z,35.89
2018-08-28T12:05:12.417Z,35.39
2018-08-28T12:07:41.983Z,34.33
2018-08-28T12:10:11.052Z,34.27
2018-08-28T12:12:38.809Z,34.90
2018-08-28T12:15:06.422Z,33.71
2018-08-28T12:17:34.306Z,33.57
2018-08-28T12:20:03.246Z,33.84
2018-08-28T12:22:31.098Z,33.44
2018-08-28T12:25:00.656Z,34.10
2018-08-28T12:27:28.271Z,33.32
2018-08-28T12:29:55.916Z,33.51
2018-08-28T12:32:24.839Z,33.60
2018-08-28T12:34:52.507Z,33.24
2018-08-28T12:37:21.964Z,33.05
2018-08-28T12:39:50.011Z,32.59
2018-08-28T12:42:18.819Z,32.85
2018-08-28T12:44:46.472Z,32.31
2018-08-28T12:47:17.334Z,32.74
2018-08-28T12:49:45.854Z,31.65
2018-08-28T12:52:15.955Z,31.50
2018-08-28T12:54:44.532Z,32.25
2018-08-28T12:57:14.384Z,32.61
2018-08-28T12:59:42.020Z,32.84
2018-08-28T13:02:10.082Z,33.58
2018-08-28T13:04:37.711Z,33.64
2018-08-28T13:07:09.883Z,32.58
2018-08-28T13:09:41.686Z,32.18
2018-08-28T13:12:09.761Z,32.69
2018-08-28T13:14:37.657Z,33.38
2018-08-28T13:17:07.246Z,33.13
2018-08-28T13:19:35.012Z,33.83
2018-08-28T13:22:03.708Z,34.35
2018-08-28T13:24:31.701Z,35.06
2018-08-28T13:27:00.926Z,34.34
2018-08-28T13:29:28.624Z,34.97
2018-08-28T13:31:56.617Z,34.60
2018-08-28T13:34:25.057Z,35.35
2018-08-28T13:36:52.833Z,34.88
2018-08-28T13:39:21.047Z,33.66
2018-08-28T13:41:49.561Z,33.82
2018-08-28T13:44:17.195Z,32.60
2018-08-28T13:46:48.861Z,32.50
2018-08-28T13:49:19.902Z,32.61
2018-08-28T13:51:47.668Z,32.24
2018-08-28T13:54:20.444Z,32.29
2018-08-28T13:56:49.979Z,32.70
2018-08-28T13:59:18.584Z,33.69
2018-08-28T14:01:46.550Z,34.31
2018-08-28T14:04:14.523Z,35.15
2018-08-28T14:06:45.243Z,36.70
2018-08-28T14:09:14.352Z,37.08
2018-08-28T14:11:42.108Z,36.92
2018-08-28T14:14:10.671Z,37.71
2018-08-28T14:16:39.228Z,37.22
2018-08-28T14:19:07.891Z,38.15
2018-08-28T14:21:35.535Z,37.76
2018-08-28T14:24:03.529Z,38.06
2018-08-28T14:26:31.983Z,38.28
2018-08-28T14:28:59.603Z,39.33
2018-08-28T14:31:28.475Z,38.69
2018-08-28T14:33:56.702Z,38.46
2018-08-28T14:36:24.400Z,38.25
2018-08-28T14:38:53.177Z,37.90
2018-08-28T14:41:21.747Z,37.59
2018-08-28T14:43:50.212Z,38.15
2018-08-28T14:46:18.180Z,38.08
2018-08-28T14:48:45.829Z,38.18
2018-08-28T14:51:14.247Z,37.63
2018-08-28T14:53:42.202Z,37.52
2018-08-28T14:56:09.886Z,37.85
2018-08-28T14:58:38.814Z,36.73
2018-08-28T15:01:07.713Z,37.15
2018-08-28T15:03:35.575Z,36.92
2018-08-28T15:06:04.624Z,36.51
2018-08-28T15:08:33.056Z,35.27
2018-08-28T15:11:00.671Z,34.98
2018-08-28T15:13:28.646Z,35.67
2018-08-28T15:15:56.963Z,35.11
2018-08-28T15:18:24.685Z,35.63
2018-08-28T15:23:56.910Z,35.06
2018-08-28T15:26:24.790Z,34.10
2018-08-28T15:28:52.626Z,34.05
2018-08-28T15:31:20.281Z,33.65
2018-08-28T15:33:48.878Z,33.74
2018-08-28T15:36:16.504Z,33.87
2018-08-28T15:38:45.290Z,34.33
2018-08-28T15:41:14.210Z,33.86
2018-08-28T15:43:41.882Z,34.81
2018-08-28T15:46:12.306Z,34.36
2018-08-28T15:48:40.206Z,33.99
2018-08-28T15:51:09.524Z,33.84
2018-08-28T15:53:39.240Z,34.25
2018-08-28T15:56:08.191Z,33.93
2018-08-28T15:58:37.019Z,33.55
2018-08-28T16:01:04.820Z,32.05
2018-08-28T16:03:33.413Z,32.10
2018-08-28T16:06:01.016Z,32.36
2018-08-28T16:08:29.490Z,32.75
2018-08-28T16:10:58.380Z,32.50
2018-08-28T16:13:26.141Z,32.89
2018-08-28T16:15:53.755Z,33.04
2018-08-28T16:18:22.536Z,35.42
2018-08-28T16:20:50.150Z,36.44
2018-08-28T16:23:22.851Z,38.21
2018-08-28T16:25:52.483Z,39.54
2018-08-28T16:28:21.590Z,39.62
2018-08-28T16:30:50.193Z,40.46
2018-08-28T16:33:18.216Z,41.46
2018-08-28T16:35:47.284Z,41.90
2018-08-28T16:38:14.887Z,41.58
2018-08-28T16:40:43.639Z,42.63
2018-08-28T16:43:12.890Z,42.89
2018-08-28T16:45:41.528Z,42.42
2018-08-28T16:48:11.355Z,42.56
2018-08-28T16:50:38.969Z,43.59
2018-08-28T16:53:06.627Z,43.21
2018-08-28T16:55:34.569Z,43.55
2018-08-28T16:58:02.263Z,43.55
2018-08-28T17:00:30.488Z,44.00
2018-08-28T17:02:59.304Z,43.85
2018-08-28T17:05:27.967Z,44.12
2018-08-28T17:07:56.350Z,43.36
2018-08-28T17:10:26.378Z,43.51
2018-08-28T17:12:58.327Z,43.54
2018-08-28T17:15:28.869Z,43.63
2018-08-28T17:17:59.059Z,43.70
2018-08-28T17:20:27.488Z,43.99
2018-08-28T17:22:55.319Z,44.89
2018-08-28T17:25:29.218Z,44.00
2018-08-28T17:27:57.223Z,44.16
2018-08-28T17:30:26.511Z,44.11
2018-08-28T17:32:54.870Z,44.30
2018-08-28T17:35:23.250Z,44.41
2018-08-28T17:37:51.559Z,44.85
2018-08-28T17:40:19.671Z,44.51
2018-08-28T17:42:48.420Z,44.53
2018-08-28T17:45:16.125Z,44.61
2018-08-28T17:47:44.166Z,44.98
2018-08-28T17:50:12.808Z,44.68
2018-08-28T17:52:46.547Z,44.86
2018-08-28T17:55:17.653Z,44.69
2018-08-28T17:57:45.320Z,45.29
2018-08-28T18:00:12.952Z,45.73
2018-08-28T18:02:40.952Z,45.28
2018-08-28T18:05:08.600Z,45.16
2018-08-28T18:07:36.977Z,45.28
2018-08-28T18:10:05.963Z,45.54
2018-08-28T18:12:33.621Z,46.01
2018-08-28T18:15:01.282Z,46.15
2018-08-28T18:17:29.290Z,46.23
2018-08-28T18:19:58.351Z,45.83
2018-08-28T18:22:27.630Z,46.63
2018-08-28T18:24:56.347Z,46.57
2018-08-28T18:27:25.471Z,46.16
2018-08-28T18:29:54.412Z,46.04
2018-08-28T18:32:28.659Z,46.06
2018-08-28T18:34:57.847Z,46.16
2018-08-28T18:37:28.460Z,46.94
2018-08-28T18:39:56.430Z,46.38
2018-08-28T18:42:24.826Z,46.50
2018-08-28T18:44:52.719Z,46.75
2018-08-28T18:47:20.789Z,47.26
2018-08-28T18:49:48.567Z,47.69
2018-08-28T18:52:17.846Z,47.61
2018-08-28T18:54:48.279Z,47.72
2018-08-28T18:57:17.576Z,47.32
2018-08-28T18:59:48.582Z,47.69
2018-08-28T19:02:16.586Z,47.95
2018-08-28T19:04:46.367Z,47.82
2018-08-28T19:07:15.481Z,48.72
2018-08-28T19:09:44.054Z,48.99
2018-08-28T19:12:14.655Z,48.86
2018-08-28T19:14:42.886Z,49.19
2018-08-28T19:17:11.526Z,49.07
2018-08-28T19:19:41.267Z,49.33
2018-08-28T19:22:12.195Z,49.34
2018-08-28T19:24:42.712Z,49.52
2018-08-28T19:27:13.550Z,48.87
2018-08-28T19:29:43.226Z,49.59
2018-08-28T19:32:11.212Z,48.90
2018-08-28T19:34:39.674Z,49.03
2018-08-28T19:37:08.605Z,49.24
2018-08-28T19:39:37.527Z,49.24
2018-08-28T19:42:05.170Z,50.29
2018-08-28T19:44:34.501Z,49.90
2018-08-28T19:47:06.267Z,49.70
2018-08-28T19:49:33.975Z,49.46
2018-08-28T19:52:01.609Z,50.21
2018-08-28T19:54:30.555Z,50.57
2018-08-28T19:56:59.853Z,49.92
2018-08-28T19:59:27.658Z,50.78
2018-08-28T20:01:55.602Z,51.07
2018-08-28T20:04:24.206Z,50.36
2018-08-28T20:06:52.567Z,50.58
2018-08-28T20:09:22.396Z,50.94
2018-08-28T20:11:50.101Z,50.70
2018-08-28T20:14:19.590Z,51.47
2018-08-28T20:16:47.565Z,51.00
2018-08-28T20:19:17.011Z,51.54
2018-08-28T20:21:45.361Z,51.97
2018-08-28T20:24:13.523Z,51.50
2018-08-28T20:26:41.221Z,51.52
2018-08-28T20:29:09.813Z,52.19
2018-08-28T20:31:40.650Z,52.25
2018-08-28T20:34:08.614Z,52.37
2018-08-28T20:36:37.212Z,51.86
2018-08-28T20:39:06.569Z,51.84
2018-08-28T20:41:35.814Z,51.56
2018-08-28T20:44:03.508Z,52.70
2018-08-28T20:46:33.019Z,52.24
2018-08-28T20:49:02.797Z,52.53
2018-08-28T20:51:36.677Z,52.51
2018-08-28T20:54:04.674Z,52.46
2018-08-28T20:56:34.120Z,52.96
2018-08-28T20:59:03.464Z,53.13
2018-08-28T21:01:31.666Z,53.11
2018-08-28T21:03:59.926Z,52.75
2018-08-28T21:06:27.832Z,52.80
2018-08-28T21:08:55.767Z,53.35
2018-08-28T21:11:23.495Z,53.41
2018-08-28T21:13:53.662Z,54.20
2018-08-28T21:16:24.106Z,53.64
2018-08-28T21:18:51.749Z,54.64
2018-08-28T21:21:20.354Z,54.06
2018-08-28T21:23:48.900Z,53.92
2018-08-28T21:26:16.561Z,54.41
2018-08-28T21:28:45.120Z,53.93
2018-08-28T21:31:13.419Z,54.79
2018-08-28T21:33:41.923Z,54.70
2018-08-28T21:36:11.685Z,54.66
2018-08-28T21:38:42.949Z,54.59
2018-08-28T21:41:10.639Z,54.11
2018-08-28T21:43:39.806Z,54.87
2018-08-28T21:46:08.531Z,54.17
2018-08-28T21:48:36.167Z,55.04
2018-08-28T21:51:04.659Z,54.57
2018-08-28T21:53:34.112Z,54.68
2018-08-28T21:56:01.785Z,54.75
2018-08-28T21:58:30.528Z,55.32
2018-08-28T22:01:04.678Z,54.88
2018-08-28T22:03:33.173Z,55.29
2018-08-28T22:06:02.349Z,54.85
2018-08-28T22:08:32.751Z,55.49
2018-08-28T22:11:00.622Z,55.83
2018-08-28T22:13:29.306Z,55.29
2018-08-28T22:15:57.573Z,55.69
2018-08-28T22:18:25.191Z,55.63
2018-08-28T22:20:57.297Z,55.44
2018-08-28T22:23:26.906Z,55.81
2018-08-28T22:25:54.524Z,55.62
2018-08-28T22:28:22.151Z,56.35
2018-08-28T22:30:50.082Z,56.22
2018-08-28T22:33:17.830Z,56.25
2018-08-28T22:35:46.077Z,56.29
2018-08-28T22:38:13.760Z,56.38
2018-08-28T22:40:42.190Z,55.86
2018-08-28T22:43:10.770Z,56.23
2018-08-28T22:45:38.393Z,55.92
2018-08-28T22:48:07.224Z,56.71
2018-08-28T22:50:36.066Z,56.38
2018-08-28T22:53:05.160Z,56.36
2018-08-28T22:55:32.884Z,56.08
2018-08-28T22:58:00.540Z,56.18
2018-08-28T23:00:28.446Z,56.07
2018-08-28T23:02:56.589Z,56.16
2018-08-28T23:05:24.240Z,56.64
2018-08-28T23:07:52.435Z,56.40
2018-08-28T23:10:20.461Z,56.57
2018-08-28T23:12:48.127Z,56.89
2018-08-28T23:15:15.721Z,57.11
2018-08-28T23:17:43.660Z,57.05
2018-08-28T23:20:15.247Z,57.25
2018-08-28T23:22:43.747Z,56.77
2018-08-28T23:25:11.400Z,57.30
2018-08-28T23:27:39.705Z,57.13
2018-08-28T23:30:07.385Z,57.48
2018-08-28T23:32:35.371Z,57.95
2018-08-28T23:35:03.174Z,57.24
2018-08-28T23:37:30.836Z,57.40
2018-08-28T23:39:58.496Z,57.39
2018-08-28T23:42:26.636Z,57.88
2018-08-28T23:44:56.489Z,58.01
2018-08-28T23:47:24.969Z,57.58
2018-08-28T23:49:52.886Z,57.68
2018-08-28T23:52:21.094Z,58.00
2018-08-28T23:54:48.679Z,58.02
2018-08-28T23:57:16.254Z,57.97
2018-08-28T23:59:44.251Z,58.12
